sensor_id;sensor_type;location;lat;lon;timestamp;temperature;humidity
12811;DHT22;6470;47.654;7.896;2022-11-15T00:01:17;8.30;99.90
12811;DHT22;6470;47.654;7.896;2022-11-15T00:08:35;7.90;99.90
12811;DHT22;6470;47.654;7.896;2022-11-15T00:11:02;6.90;99.90
12811;DHT22;6470;47.654;7.896;2022-11-15T00:13:29;7.70;99.90
12811;DHT22;6470;47.654;7.896;2022-11-15T00:15:59;7.90;99.90
12811;DHT22;6470;47.654;7.896;2022-11-15T00:30:35;7.50;99.90
12811;DHT22;6470;47.654;7.896;2022-11-15T00:33:05;8.10;99.90
12811;DHT22;6470;47.654;7.896;2022-11-15T00:35:32;7.90;99.90
12811;DHT22;6470;47.654;7.896;2022-11-15T00:40:24;7.60;99.90
12811;DHT22;6470;47.654;7.896;2022-11-15T00:42:50;5.10;99.90
12811;DHT22;6470;47.654;7.896;2022-11-15T00:45:16;7.80;99.90
12811;DHT22;6470;47.654;7.896;2022-11-15T00:47:44;8.30;99.90
12811;DHT22;6470;47.654;7.896;2022-11-15T00:50:11;8.20;99.90
12811;DHT22;6470;47.654;7.896;2022-11-15T00:52:37;7.90;99.90
12811;DHT22;6470;47.654;7.896;2022-11-15T00:55:03;8.00;99.90
12811;DHT22;6470;47.654;7.896;2022-11-15T00:59:55;8.10;99.90
12811;DHT22;6470;47.654;7.896;2022-11-15T01:02:21;9.00;99.90
12811;DHT22;6470;47.654;7.896;2022-11-15T01:04:46;9.40;99.90
12811;DHT22;6470;47.654;7.896;2022-11-15T01:07:12;9.30;99.90
12811;DHT22;6470;47.654;7.896;2022-11-15T01:09:38;9.60;99.90
12811;DHT22;6470;47.654;7.896;2022-11-15T01:12:04;9.40;99.90
12811;DHT22;6470;47.654;7.896;2022-11-15T01:14:30;8.60;99.90
12811;DHT22;6470;47.654;7.896;2022-11-15T01:16:55;8.90;99.90
12811;DHT22;6470;47.654;7.896;2022-11-15T01:21:50;8.90;99.90
12811;DHT22;6470;47.654;7.896;2022-11-15T01:24:16;9.00;99.90
12811;DHT22;6470;47.654;7.896;2022-11-15T01:26:42;8.80;99.90
12811;DHT22;6470;47.654;7.896;2022-11-15T01:29:07;9.60;99.90
12811;DHT22;6470;47.654;7.896;2022-11-15T01:31:33;9.70;99.90
12811;DHT22;6470;47.654;7.896;2022-11-15T01:33:59;9.10;99.90
12811;DHT22;6470;47.654;7.896;2022-11-15T01:38:57;9.80;99.90
12811;DHT22;6470;47.654;7.896;2022-11-15T01:41:29;9.40;99.90
12811;DHT22;6470;47.654;7.896;2022-11-15T01:43:57;9.60;99.90
12811;DHT22;6470;47.654;7.896;2022-11-15T01:46:46;9.00;99.90
12811;DHT22;6470;47.654;7.896;2022-11-15T01:49:17;9.30;99.90
12811;DHT22;6470;47.654;7.896;2022-11-15T01:54:15;9.40;99.90
12811;DHT22;6470;47.654;7.896;2022-11-15T01:56:48;10.00;99.90
12811;DHT22;6470;47.654;7.896;2022-11-15T02:01:41;9.30;99.90
12811;DHT22;6470;47.654;7.896;2022-11-15T02:04:15;10.10;99.90
12811;DHT22;6470;47.654;7.896;2022-11-15T02:06:42;9.70;99.90
12811;DHT22;6470;47.654;7.896;2022-11-15T02:09:09;9.50;99.90
12811;DHT22;6470;47.654;7.896;2022-11-15T02:11:35;8.80;99.90
12811;DHT22;6470;47.654;7.896;2022-11-15T02:14:01;9.70;99.90
12811;DHT22;6470;47.654;7.896;2022-11-15T02:31:04;9.70;99.90
12811;DHT22;6470;47.654;7.896;2022-11-15T02:42:09;8.50;99.90
12811;DHT22;6470;47.654;7.896;2022-11-15T02:44:58;9.60;99.90
12811;DHT22;6470;47.654;7.896;2022-11-15T02:47:27;9.20;99.90
12811;DHT22;6470;47.654;7.896;2022-11-15T02:49:58;9.30;99.90
12811;DHT22;6470;47.654;7.896;2022-11-15T02:52:25;8.60;99.90
12811;DHT22;6470;47.654;7.896;2022-11-15T02:54:58;8.70;99.90
12811;DHT22;6470;47.654;7.896;2022-11-15T03:05:47;8.70;99.90
12811;DHT22;6470;47.654;7.896;2022-11-15T03:08:29;9.70;99.90
12811;DHT22;6470;47.654;7.896;2022-11-15T03:16:03;8.70;99.90
12811;DHT22;6470;47.654;7.896;2022-11-15T03:18:40;9.10;99.90
12811;DHT22;6470;47.654;7.896;2022-11-15T03:21:08;9.30;99.90
12811;DHT22;6470;47.654;7.896;2022-11-15T03:23:36;9.10;99.90
12811;DHT22;6470;47.654;7.896;2022-11-15T03:26:06;8.70;99.90
12811;DHT22;6470;47.654;7.896;2022-11-15T03:28:40;9.10;99.90
12811;DHT22;6470;47.654;7.896;2022-11-15T03:31:09;9.10;99.90
12811;DHT22;6470;47.654;7.896;2022-11-15T03:33:55;9.10;99.90
12811;DHT22;6470;47.654;7.896;2022-11-15T03:36:23;9.50;99.90
12811;DHT22;6470;47.654;7.896;2022-11-15T03:38:53;9.10;99.90
12811;DHT22;6470;47.654;7.896;2022-11-15T03:41:33;8.40;99.90
12811;DHT22;6470;47.654;7.896;2022-11-15T03:44:16;9.00;99.90
12811;DHT22;6470;47.654;7.896;2022-11-15T03:47:02;8.50;99.90
12811;DHT22;6470;47.654;7.896;2022-11-15T03:49:42;8.40;99.90
12811;DHT22;6470;47.654;7.896;2022-11-15T03:52:10;9.10;99.90
12811;DHT22;6470;47.654;7.896;2022-11-15T03:57:02;9.00;99.90
12811;DHT22;6470;47.654;7.896;2022-11-15T04:01:54;7.00;99.90
12811;DHT22;6470;47.654;7.896;2022-11-15T04:04:20;9.00;99.90
12811;DHT22;6470;47.654;7.896;2022-11-15T04:06:45;8.20;99.90
12811;DHT22;6470;47.654;7.896;2022-11-15T04:09:11;9.10;99.90
12811;DHT22;6470;47.654;7.896;2022-11-15T04:11:36;7.70;99.90
12811;DHT22;6470;47.654;7.896;2022-11-15T04:14:02;9.00;99.90
12811;DHT22;6470;47.654;7.896;2022-11-15T04:16:28;9.00;99.90
12811;DHT22;6470;47.654;7.896;2022-11-15T04:18:53;8.20;99.90
12811;DHT22;6470;47.654;7.896;2022-11-15T04:24:22;9.10;99.90
12811;DHT22;6470;47.654;7.896;2022-11-15T04:26:48;9.20;99.90
12811;DHT22;6470;47.654;7.896;2022-11-15T04:29:13;9.10;99.90
12811;DHT22;6470;47.654;7.896;2022-11-15T04:36:49;7.00;99.90
12811;DHT22;6470;47.654;7.896;2022-11-15T04:39:34;8.70;99.90
12811;DHT22;6470;47.654;7.896;2022-11-15T04:41:59;8.70;99.90
12811;DHT22;6470;47.654;7.896;2022-11-15T04:44:25;8.60;99.90
12811;DHT22;6470;47.654;7.896;2022-11-15T04:49:17;8.60;99.90
12811;DHT22;6470;47.654;7.896;2022-11-15T04:51:42;9.00;99.90
12811;DHT22;6470;47.654;7.896;2022-11-15T04:54:08;8.60;99.90
12811;DHT22;6470;47.654;7.896;2022-11-15T05:03:52;7.90;99.90
12811;DHT22;6470;47.654;7.896;2022-11-15T05:06:36;8.60;99.90
12811;DHT22;6470;47.654;7.896;2022-11-15T05:09:02;9.00;99.90
12811;DHT22;6470;47.654;7.896;2022-11-15T05:11:28;8.60;99.90
12811;DHT22;6470;47.654;7.896;2022-11-15T05:16:19;8.70;99.90
12811;DHT22;6470;47.654;7.896;2022-11-15T05:18:45;8.50;99.90
12811;DHT22;6470;47.654;7.896;2022-11-15T05:21:13;8.30;99.90
12811;DHT22;6470;47.654;7.896;2022-11-15T05:23:40;8.70;99.90
12811;DHT22;6470;47.654;7.896;2022-11-15T05:26:07;8.60;99.90
12811;DHT22;6470;47.654;7.896;2022-11-15T05:28:33;8.90;99.90
12811;DHT22;6470;47.654;7.896;2022-11-15T05:31:10;8.60;99.90
12811;DHT22;6470;47.654;7.896;2022-11-15T05:33:41;8.60;99.90
12811;DHT22;6470;47.654;7.896;2022-11-15T05:38:41;9.00;99.90
12811;DHT22;6470;47.654;7.896;2022-11-15T05:41:07;6.90;99.90
12811;DHT22;6470;47.654;7.896;2022-11-15T05:43:35;9.00;99.90
12811;DHT22;6470;47.654;7.896;2022-11-15T05:46:04;8.70;99.90
12811;DHT22;6470;47.654;7.896;2022-11-15T05:48:31;9.10;99.90
12811;DHT22;6470;47.654;7.896;2022-11-15T05:50:57;8.60;99.90
12811;DHT22;6470;47.654;7.896;2022-11-15T05:53:25;9.10;99.90
12811;DHT22;6470;47.654;7.896;2022-11-15T05:55:51;8.50;99.90
12811;DHT22;6470;47.654;7.896;2022-11-15T05:58:18;8.80;99.90
12811;DHT22;6470;47.654;7.896;2022-11-15T06:00:44;8.20;99.90
12811;DHT22;6470;47.654;7.896;2022-11-15T06:03:10;8.10;99.90
12811;DHT22;6470;47.654;7.896;2022-11-15T06:05:36;7.60;99.90
12811;DHT22;6470;47.654;7.896;2022-11-15T06:08:01;8.40;99.90
12811;DHT22;6470;47.654;7.896;2022-11-15T06:13:01;8.70;99.90
12811;DHT22;6470;47.654;7.896;2022-11-15T06:15:27;8.20;99.90
12811;DHT22;6470;47.654;7.896;2022-11-15T06:17:56;8.50;99.90
12811;DHT22;6470;47.654;7.896;2022-11-15T06:20:24;7.10;99.90
12811;DHT22;6470;47.654;7.896;2022-11-15T06:25:15;8.20;99.90
12811;DHT22;6470;47.654;7.896;2022-11-15T06:27:41;8.60;99.90
12811;DHT22;6470;47.654;7.896;2022-11-15T06:30:07;8.70;99.90
12811;DHT22;6470;47.654;7.896;2022-11-15T06:32:33;8.60;99.90
12811;DHT22;6470;47.654;7.896;2022-11-15T06:34:58;8.60;99.90
12811;DHT22;6470;47.654;7.896;2022-11-15T06:39:50;8.70;99.90
12811;DHT22;6470;47.654;7.896;2022-11-15T06:42:16;8.40;99.90
12811;DHT22;6470;47.654;7.896;2022-11-15T06:47:07;8.80;99.90
12811;DHT22;6470;47.654;7.896;2022-11-15T06:49:33;8.50;99.90
12811;DHT22;6470;47.654;7.896;2022-11-15T06:51:59;8.60;99.90
12811;DHT22;6470;47.654;7.896;2022-11-15T06:54:24;8.90;99.90
12811;DHT22;6470;47.654;7.896;2022-11-15T06:56:50;8.80;99.90
12811;DHT22;6470;47.654;7.896;2022-11-15T06:59:16;8.50;99.90
12811;DHT22;6470;47.654;7.896;2022-11-15T07:01:41;8.70;99.90
12811;DHT22;6470;47.654;7.896;2022-11-15T07:04:07;8.10;99.90
12811;DHT22;6470;47.654;7.896;2022-11-15T07:06:33;8.30;99.90
12811;DHT22;6470;47.654;7.896;2022-11-15T07:08:58;7.80;99.90
12811;DHT22;6470;47.654;7.896;2022-11-15T07:11:24;7.10;99.90
12811;DHT22;6470;47.654;7.896;2022-11-15T07:13:50;8.60;99.90
12811;DHT22;6470;47.654;7.896;2022-11-15T07:16:15;8.30;99.90
12811;DHT22;6470;47.654;7.896;2022-11-15T07:21:10;8.60;99.90
12811;DHT22;6470;47.654;7.896;2022-11-15T07:23:37;8.20;99.90
12811;DHT22;6470;47.654;7.896;2022-11-15T07:26:03;7.80;99.90
12811;DHT22;6470;47.654;7.896;2022-11-15T07:28:29;8.00;99.90
12811;DHT22;6470;47.654;7.896;2022-11-15T07:33:21;7.30;99.90
12811;DHT22;6470;47.654;7.896;2022-11-15T07:35:47;8.80;99.90
12811;DHT22;6470;47.654;7.896;2022-11-15T07:38:16;8.90;99.90
12811;DHT22;6470;47.654;7.896;2022-11-15T07:40:45;8.90;99.90
12811;DHT22;6470;47.654;7.896;2022-11-15T07:43:12;9.00;99.90
12811;DHT22;6470;47.654;7.896;2022-11-15T07:45:43;9.30;99.90
12811;DHT22;6470;47.654;7.896;2022-11-15T07:48:08;8.30;99.90
12811;DHT22;6470;47.654;7.896;2022-11-15T07:50:34;8.70;99.90
12811;DHT22;6470;47.654;7.896;2022-11-15T07:53:00;7.90;99.90
12811;DHT22;6470;47.654;7.896;2022-11-15T07:55:27;8.30;99.90
12811;DHT22;6470;47.654;7.896;2022-11-15T07:58:03;8.50;99.90
12811;DHT22;6470;47.654;7.896;2022-11-15T08:00:29;8.40;99.90
12811;DHT22;6470;47.654;7.896;2022-11-15T08:03:04;8.80;99.90
12811;DHT22;6470;47.654;7.896;2022-11-15T08:05:30;7.20;99.90
12811;DHT22;6470;47.654;7.896;2022-11-15T08:07:56;5.80;99.90
12811;DHT22;6470;47.654;7.896;2022-11-15T08:12:48;9.00;99.90
12811;DHT22;6470;47.654;7.896;2022-11-15T08:15:14;8.40;99.90
12811;DHT22;6470;47.654;7.896;2022-11-15T08:20:06;8.60;99.90
12811;DHT22;6470;47.654;7.896;2022-11-15T08:22:33;8.70;99.90
12811;DHT22;6470;47.654;7.896;2022-11-15T08:24:59;9.00;99.90
12811;DHT22;6470;47.654;7.896;2022-11-15T08:27:24;8.80;99.90
12811;DHT22;6470;47.654;7.896;2022-11-15T08:29:50;8.60;99.90
12811;DHT22;6470;47.654;7.896;2022-11-15T08:32:16;8.50;99.90
12811;DHT22;6470;47.654;7.896;2022-11-15T08:34:43;9.60;99.90
12811;DHT22;6470;47.654;7.896;2022-11-15T08:37:09;9.10;99.90
12811;DHT22;6470;47.654;7.896;2022-11-15T08:39:34;8.70;99.90
12811;DHT22;6470;47.654;7.896;2022-11-15T08:42:00;8.80;99.90
12811;DHT22;6470;47.654;7.896;2022-11-15T08:49:18;9.10;99.90
12811;DHT22;6470;47.654;7.896;2022-11-15T08:51:44;9.10;99.90
12811;DHT22;6470;47.654;7.896;2022-11-15T08:54:09;9.20;99.90
12811;DHT22;6470;47.654;7.896;2022-11-15T08:56:35;9.20;99.90
12811;DHT22;6470;47.654;7.896;2022-11-15T08:59:00;9.10;99.90
12811;DHT22;6470;47.654;7.896;2022-11-15T09:01:26;7.10;99.90
12811;DHT22;6470;47.654;7.896;2022-11-15T09:03:52;7.10;99.90
12811;DHT22;6470;47.654;7.896;2022-11-15T09:06:18;9.70;99.90
12811;DHT22;6470;47.654;7.896;2022-11-15T09:08:43;9.00;99.90
12811;DHT22;6470;47.654;7.896;2022-11-15T09:11:10;9.40;99.90
12811;DHT22;6470;47.654;7.896;2022-11-15T09:13:36;8.40;99.90
12811;DHT22;6470;47.654;7.896;2022-11-15T09:16:05;9.10;99.90
12811;DHT22;6470;47.654;7.896;2022-11-15T09:18:31;9.00;99.90
12811;DHT22;6470;47.654;7.896;2022-11-15T09:20:58;9.40;99.90
12811;DHT22;6470;47.654;7.896;2022-11-15T09:25:51;9.00;99.90
12811;DHT22;6470;47.654;7.896;2022-11-15T09:28:17;9.00;99.90
12811;DHT22;6470;47.654;7.896;2022-11-15T09:30:43;8.70;99.90
12811;DHT22;6470;47.654;7.896;2022-11-15T09:33:10;8.40;99.90
12811;DHT22;6470;47.654;7.896;2022-11-15T09:35:36;9.30;99.90
12811;DHT22;6470;47.654;7.896;2022-11-15T09:38:02;8.90;99.90
12811;DHT22;6470;47.654;7.896;2022-11-15T09:40:31;9.30;99.90
12811;DHT22;6470;47.654;7.896;2022-11-15T09:45:59;9.30;99.90
12811;DHT22;6470;47.654;7.896;2022-11-15T09:48:50;9.20;99.90
12811;DHT22;6470;47.654;7.896;2022-11-15T09:56:29;9.40;99.90
12811;DHT22;6470;47.654;7.896;2022-11-15T09:59:11;8.90;99.90
12811;DHT22;6470;47.654;7.896;2022-11-15T10:01:50;9.70;99.90
12811;DHT22;6470;47.654;7.896;2022-11-15T10:04:21;9.50;99.90
12811;DHT22;6470;47.654;7.896;2022-11-15T10:12:25;9.50;99.90
12811;DHT22;6470;47.654;7.896;2022-11-15T10:15:05;9.20;99.90
12811;DHT22;6470;47.654;7.896;2022-11-15T10:23:02;9.70;99.90
12811;DHT22;6470;47.654;7.896;2022-11-15T10:25:34;9.90;99.90
12811;DHT22;6470;47.654;7.896;2022-11-15T10:30:43;9.90;99.90
12811;DHT22;6470;47.654;7.896;2022-11-15T10:33:21;10.20;99.90
12811;DHT22;6470;47.654;7.896;2022-11-15T10:35:49;9.60;99.90
12811;DHT22;6470;47.654;7.896;2022-11-15T10:39:10;10.20;99.90
12811;DHT22;6470;47.654;7.896;2022-11-15T10:41:40;9.90;99.90
12811;DHT22;6470;47.654;7.896;2022-11-15T10:46:40;10.20;99.90
12811;DHT22;6470;47.654;7.896;2022-11-15T10:49:18;10.60;99.90
12811;DHT22;6470;47.654;7.896;2022-11-15T10:54:37;10.60;99.90
12811;DHT22;6470;47.654;7.896;2022-11-15T10:57:06;9.80;99.90
12811;DHT22;6470;47.654;7.896;2022-11-15T10:59:37;12.10;99.90
12811;DHT22;6470;47.654;7.896;2022-11-15T11:04:52;12.30;99.90
12811;DHT22;6470;47.654;7.896;2022-11-15T11:07:28;12.30;99.90
12811;DHT22;6470;47.654;7.896;2022-11-15T11:10:20;11.40;99.90
12811;DHT22;6470;47.654;7.896;2022-11-15T11:12:44;12.50;99.90
12811;DHT22;6470;47.654;7.896;2022-11-15T11:15:13;12.00;99.90
12811;DHT22;6470;47.654;7.896;2022-11-15T11:25:50;12.30;99.90
12811;DHT22;6470;47.654;7.896;2022-11-15T11:31:17;12.50;99.90
12811;DHT22;6470;47.654;7.896;2022-11-15T11:34:26;12.20;99.90
12811;DHT22;6470;47.654;7.896;2022-11-15T11:37:07;12.10;99.90
12811;DHT22;6470;47.654;7.896;2022-11-15T11:39:54;11.60;99.90
12811;DHT22;6470;47.654;7.896;2022-11-15T11:47:44;11.50;99.90
12811;DHT22;6470;47.654;7.896;2022-11-15T11:50:18;11.50;99.90
12811;DHT22;6470;47.654;7.896;2022-11-15T11:58:13;11.90;99.90
12811;DHT22;6470;47.654;7.896;2022-11-15T12:01:14;12.10;99.90
12811;DHT22;6470;47.654;7.896;2022-11-15T12:09:43;12.50;99.90
12811;DHT22;6470;47.654;7.896;2022-11-15T12:14:45;12.30;99.90
12811;DHT22;6470;47.654;7.896;2022-11-15T12:17:13;12.10;99.90
12811;DHT22;6470;47.654;7.896;2022-11-15T12:19:40;15.30;99.90
12811;DHT22;6470;47.654;7.896;2022-11-15T12:22:31;14.90;99.90
12811;DHT22;6470;47.654;7.896;2022-11-15T12:25:08;15.30;99.90
12811;DHT22;6470;47.654;7.896;2022-11-15T12:27:50;15.40;99.90
12811;DHT22;6470;47.654;7.896;2022-11-15T12:30:20;12.00;99.90
12811;DHT22;6470;47.654;7.896;2022-11-15T12:32:55;12.00;99.90
12811;DHT22;6470;47.654;7.896;2022-11-15T12:35:40;12.60;99.90
12811;DHT22;6470;47.654;7.896;2022-11-15T12:38:11;12.00;99.90
12811;DHT22;6470;47.654;7.896;2022-11-15T12:41:11;11.60;99.90
12811;DHT22;6470;47.654;7.896;2022-11-15T12:43:41;12.50;99.90
12811;DHT22;6470;47.654;7.896;2022-11-15T12:48:57;11.70;99.90
12811;DHT22;6470;47.654;7.896;2022-11-15T12:59:59;15.30;99.90
12811;DHT22;6470;47.654;7.896;2022-11-15T13:02:39;15.30;99.90
12811;DHT22;6470;47.654;7.896;2022-11-15T13:17:51;12.40;99.90
12811;DHT22;6470;47.654;7.896;2022-11-15T13:34:02;10.40;99.90
12811;DHT22;6470;47.654;7.896;2022-11-15T13:36:32;11.90;99.90
12811;DHT22;6470;47.654;7.896;2022-11-15T13:39:03;10.10;99.90
12811;DHT22;6470;47.654;7.896;2022-11-15T13:41:34;14.70;99.90
12811;DHT22;6470;47.654;7.896;2022-11-15T13:44:01;12.60;99.90
12811;DHT22;6470;47.654;7.896;2022-11-15T13:46:32;11.50;99.90
12811;DHT22;6470;47.654;7.896;2022-11-15T13:49:05;12.20;99.90
12811;DHT22;6470;47.654;7.896;2022-11-15T13:51:45;12.30;99.90
12811;DHT22;6470;47.654;7.896;2022-11-15T13:56:47;11.20;99.90
12811;DHT22;6470;47.654;7.896;2022-11-15T14:01:46;10.00;99.90
12811;DHT22;6470;47.654;7.896;2022-11-15T14:04:13;12.50;99.90
12811;DHT22;6470;47.654;7.896;2022-11-15T14:06:50;11.90;99.90
12811;DHT22;6470;47.654;7.896;2022-11-15T14:09:30;12.60;99.90
12811;DHT22;6470;47.654;7.896;2022-11-15T14:12:00;10.00;99.90
12811;DHT22;6470;47.654;7.896;2022-11-15T14:14:28;11.70;99.90
12811;DHT22;6470;47.654;7.896;2022-11-15T14:16:56;11.90;99.90
12811;DHT22;6470;47.654;7.896;2022-11-15T14:22:28;12.20;99.90
12811;DHT22;6470;47.654;7.896;2022-11-15T14:27:35;11.90;99.90
12811;DHT22;6470;47.654;7.896;2022-11-15T14:30:00;14.90;99.90
12811;DHT22;6470;47.654;7.896;2022-11-15T14:32:47;9.80;99.90
12811;DHT22;6470;47.654;7.896;2022-11-15T14:35:19;15.00;99.90
12811;DHT22;6470;47.654;7.896;2022-11-15T14:37:45;15.00;99.90
12811;DHT22;6470;47.654;7.896;2022-11-15T14:40:14;15.30;99.90
12811;DHT22;6470;47.654;7.896;2022-11-15T14:45:12;14.30;99.90
12811;DHT22;6470;47.654;7.896;2022-11-15T14:50:05;12.60;99.90
12811;DHT22;6470;47.654;7.896;2022-11-15T14:52:32;12.00;99.90
12811;DHT22;6470;47.654;7.896;2022-11-15T14:55:04;12.20;99.90
12811;DHT22;6470;47.654;7.896;2022-11-15T14:57:35;12.90;99.90
12811;DHT22;6470;47.654;7.896;2022-11-15T15:02:27;11.40;99.90
12811;DHT22;6470;47.654;7.896;2022-11-15T15:04:53;11.60;99.90
12811;DHT22;6470;47.654;7.896;2022-11-15T15:07:19;11.40;99.90
12811;DHT22;6470;47.654;7.896;2022-11-15T15:09:46;11.50;99.90
12811;DHT22;6470;47.654;7.896;2022-11-15T15:17:08;15.10;99.90
12811;DHT22;6470;47.654;7.896;2022-11-15T15:19:33;12.80;99.90
12811;DHT22;6470;47.654;7.896;2022-11-15T15:21:59;12.00;99.90
12811;DHT22;6470;47.654;7.896;2022-11-15T15:24:25;12.20;99.90
12811;DHT22;6470;47.654;7.896;2022-11-15T15:26:51;12.10;99.90
12811;DHT22;6470;47.654;7.896;2022-11-15T15:29:16;12.40;99.90
12811;DHT22;6470;47.654;7.896;2022-11-15T15:31:42;15.10;99.90
12811;DHT22;6470;47.654;7.896;2022-11-15T15:34:07;12.40;99.90
12811;DHT22;6470;47.654;7.896;2022-11-15T15:36:33;12.10;99.90
12811;DHT22;6470;47.654;7.896;2022-11-15T15:38:59;12.50;99.90
12811;DHT22;6470;47.654;7.896;2022-11-15T15:41:24;12.70;99.90
12811;DHT22;6470;47.654;7.896;2022-11-15T15:43:50;12.00;99.90
12811;DHT22;6470;47.654;7.896;2022-11-15T15:46:18;9.90;99.90
12811;DHT22;6470;47.654;7.896;2022-11-15T15:48:44;11.30;99.90
12811;DHT22;6470;47.654;7.896;2022-11-15T15:51:10;11.80;99.90
12811;DHT22;6470;47.654;7.896;2022-11-15T15:53:37;11.90;99.90
12811;DHT22;6470;47.654;7.896;2022-11-15T16:03:23;10.20;99.90
12811;DHT22;6470;47.654;7.896;2022-11-15T16:05:50;10.70;99.90
12811;DHT22;6470;47.654;7.896;2022-11-15T16:08:21;10.10;99.90
12811;DHT22;6470;47.654;7.896;2022-11-15T16:10:47;12.30;99.90
12811;DHT22;6470;47.654;7.896;2022-11-15T16:13:13;10.60;99.90
12811;DHT22;6470;47.654;7.896;2022-11-15T16:15:39;10.50;99.90
12811;DHT22;6470;47.654;7.896;2022-11-15T16:18:06;9.90;99.90
12811;DHT22;6470;47.654;7.896;2022-11-15T16:20:45;10.90;99.90
12811;DHT22;6470;47.654;7.896;2022-11-15T16:23:16;10.50;99.90
12811;DHT22;6470;47.654;7.896;2022-11-15T16:25:46;10.60;99.90
12811;DHT22;6470;47.654;7.896;2022-11-15T16:28:21;10.60;99.90
12811;DHT22;6470;47.654;7.896;2022-11-15T16:30:49;10.50;99.90
12811;DHT22;6470;47.654;7.896;2022-11-15T16:35:42;10.20;99.90
12811;DHT22;6470;47.654;7.896;2022-11-15T16:38:14;10.60;99.90
12811;DHT22;6470;47.654;7.896;2022-11-15T16:40:40;10.80;99.90
12811;DHT22;6470;47.654;7.896;2022-11-15T16:43:05;9.80;99.90
12811;DHT22;6470;47.654;7.896;2022-11-15T16:45:33;10.20;99.90
12811;DHT22;6470;47.654;7.896;2022-11-15T16:48:00;9.90;99.90
12811;DHT22;6470;47.654;7.896;2022-11-15T16:50:28;10.60;99.90
12811;DHT22;6470;47.654;7.896;2022-11-15T16:52:56;10.40;99.90
12811;DHT22;6470;47.654;7.896;2022-11-15T16:55:24;9.90;99.90
12811;DHT22;6470;47.654;7.896;2022-11-15T16:57:50;10.40;99.90
12811;DHT22;6470;47.654;7.896;2022-11-15T17:00:17;10.00;99.90
12811;DHT22;6470;47.654;7.896;2022-11-15T17:02:45;9.90;99.90
12811;DHT22;6470;47.654;7.896;2022-11-15T17:05:11;9.30;99.90
12811;DHT22;6470;47.654;7.896;2022-11-15T17:07:38;10.10;99.90
12811;DHT22;6470;47.654;7.896;2022-11-15T17:10:07;10.50;99.90
12811;DHT22;6470;47.654;7.896;2022-11-15T17:12:34;10.10;99.90
12811;DHT22;6470;47.654;7.896;2022-11-15T17:15:00;10.20;99.90
12811;DHT22;6470;47.654;7.896;2022-11-15T17:17:25;10.00;99.90
12811;DHT22;6470;47.654;7.896;2022-11-15T17:19:52;9.60;99.90
12811;DHT22;6470;47.654;7.896;2022-11-15T17:22:18;10.20;99.90
12811;DHT22;6470;47.654;7.896;2022-11-15T17:29:36;9.50;99.90
12811;DHT22;6470;47.654;7.896;2022-11-15T17:32:02;9.50;99.90
12811;DHT22;6470;47.654;7.896;2022-11-15T17:36:54;10.10;99.90
12811;DHT22;6470;47.654;7.896;2022-11-15T17:39:19;10.40;99.90
12811;DHT22;6470;47.654;7.896;2022-11-15T17:41:46;9.20;99.90
12811;DHT22;6470;47.654;7.896;2022-11-15T17:44:12;10.50;99.90
12811;DHT22;6470;47.654;7.896;2022-11-15T17:46:37;10.40;99.90
12811;DHT22;6470;47.654;7.896;2022-11-15T17:49:05;9.90;99.90
12811;DHT22;6470;47.654;7.896;2022-11-15T17:51:31;10.20;99.90
12811;DHT22;6470;47.654;7.896;2022-11-15T17:53:57;8.90;99.90
12811;DHT22;6470;47.654;7.896;2022-11-15T17:56:25;9.90;99.90
12811;DHT22;6470;47.654;7.896;2022-11-15T17:58:56;10.10;99.90
12811;DHT22;6470;47.654;7.896;2022-11-15T18:01:26;10.10;99.90
12811;DHT22;6470;47.654;7.896;2022-11-15T18:03:52;9.60;99.90
12811;DHT22;6470;47.654;7.896;2022-11-15T18:06:20;9.80;99.90
12811;DHT22;6470;47.654;7.896;2022-11-15T18:08:47;10.20;99.90
12811;DHT22;6470;47.654;7.896;2022-11-15T18:11:21;10.00;99.90
12811;DHT22;6470;47.654;7.896;2022-11-15T18:13:53;9.80;99.90
12811;DHT22;6470;47.654;7.896;2022-11-15T18:16:21;10.00;99.90
12811;DHT22;6470;47.654;7.896;2022-11-15T18:18:49;9.70;99.90
12811;DHT22;6470;47.654;7.896;2022-11-15T18:21:22;9.60;99.90
12811;DHT22;6470;47.654;7.896;2022-11-15T18:23:52;10.00;99.90
12811;DHT22;6470;47.654;7.896;2022-11-15T18:26:18;9.60;99.90
12811;DHT22;6470;47.654;7.896;2022-11-15T18:28:46;9.90;99.90
12811;DHT22;6470;47.654;7.896;2022-11-15T18:31:18;9.90;99.90
12811;DHT22;6470;47.654;7.896;2022-11-15T18:33:45;10.00;99.90
12811;DHT22;6470;47.654;7.896;2022-11-15T18:36:14;9.30;99.90
12811;DHT22;6470;47.654;7.896;2022-11-15T18:38:40;10.00;99.90
12811;DHT22;6470;47.654;7.896;2022-11-15T18:41:15;10.50;99.90
12811;DHT22;6470;47.654;7.896;2022-11-15T18:43:46;10.00;99.90
12811;DHT22;6470;47.654;7.896;2022-11-15T18:46:18;10.00;99.90
12811;DHT22;6470;47.654;7.896;2022-11-15T18:48:45;10.10;99.90
12811;DHT22;6470;47.654;7.896;2022-11-15T18:51:15;9.30;99.90
12811;DHT22;6470;47.654;7.896;2022-11-15T18:53:42;9.20;99.90
12811;DHT22;6470;47.654;7.896;2022-11-15T18:56:10;9.80;99.90
12811;DHT22;6470;47.654;7.896;2022-11-15T18:58:41;9.50;99.90
12811;DHT22;6470;47.654;7.896;2022-11-15T19:01:13;9.90;99.90
12811;DHT22;6470;47.654;7.896;2022-11-15T19:03:43;10.10;99.90
12811;DHT22;6470;47.654;7.896;2022-11-15T19:06:13;9.60;99.90
12811;DHT22;6470;47.654;7.896;2022-11-15T19:08:41;10.00;99.90
12811;DHT22;6470;47.654;7.896;2022-11-15T19:13:33;9.10;99.90
12811;DHT22;6470;47.654;7.896;2022-11-15T19:15:59;9.90;99.90
12811;DHT22;6470;47.654;7.896;2022-11-15T19:18:26;9.90;99.90
12811;DHT22;6470;47.654;7.896;2022-11-15T19:20:53;9.70;99.90
12811;DHT22;6470;47.654;7.896;2022-11-15T19:23:22;10.10;99.90
12811;DHT22;6470;47.654;7.896;2022-11-15T19:25:55;9.20;99.90
12811;DHT22;6470;47.654;7.896;2022-11-15T19:28:23;9.80;99.90
12811;DHT22;6470;47.654;7.896;2022-11-15T19:30:49;9.70;99.90
12811;DHT22;6470;47.654;7.896;2022-11-15T19:33:15;8.70;99.90
12811;DHT22;6470;47.654;7.896;2022-11-15T19:35:41;9.10;99.90
12811;DHT22;6470;47.654;7.896;2022-11-15T19:38:07;9.20;99.90
12811;DHT22;6470;47.654;7.896;2022-11-15T19:40:33;9.10;99.90
12811;DHT22;6470;47.654;7.896;2022-11-15T19:42:58;9.40;99.90
12811;DHT22;6470;47.654;7.896;2022-11-15T19:45:24;9.50;99.90
12811;DHT22;6470;47.654;7.896;2022-11-15T19:47:50;9.10;99.90
12811;DHT22;6470;47.654;7.896;2022-11-15T19:50:16;9.40;99.90
12811;DHT22;6470;47.654;7.896;2022-11-15T19:52:42;9.40;99.90
12811;DHT22;6470;47.654;7.896;2022-11-15T19:55:08;10.00;99.90
12811;DHT22;6470;47.654;7.896;2022-11-15T19:57:34;10.00;99.90
12811;DHT22;6470;47.654;7.896;2022-11-15T19:59:59;9.50;99.90
12811;DHT22;6470;47.654;7.896;2022-11-15T20:02:25;10.40;99.90
12811;DHT22;6470;47.654;7.896;2022-11-15T20:04:51;9.90;99.90
12811;DHT22;6470;47.654;7.896;2022-11-15T20:07:16;9.80;99.90
12811;DHT22;6470;47.654;7.896;2022-11-15T20:12:09;9.80;99.90
12811;DHT22;6470;47.654;7.896;2022-11-15T20:14:35;9.40;99.90
12811;DHT22;6470;47.654;7.896;2022-11-15T20:17:00;10.00;99.90
12811;DHT22;6470;47.654;7.896;2022-11-15T20:19:26;9.30;99.90
12811;DHT22;6470;47.654;7.896;2022-11-15T20:21:52;9.70;99.90
12811;DHT22;6470;47.654;7.896;2022-11-15T20:24:18;9.90;99.90
12811;DHT22;6470;47.654;7.896;2022-11-15T20:26:43;9.80;99.90
12811;DHT22;6470;47.654;7.896;2022-11-15T20:29:09;9.10;99.90
12811;DHT22;6470;47.654;7.896;2022-11-15T20:31:35;9.70;99.90
12811;DHT22;6470;47.654;7.896;2022-11-15T20:34:01;9.80;99.90